Observation data for Slaton on 01/17/2019      Previous  Date  Next       Current Mesonet Observations  Soil Data  Daily Summary Page  Observations in Plain Language
KSLS 170600Z 29019G25KT 12/M01 A3008 RMK A01 T01231006  RH  041%=      5-min Rain = 0
KSLS 170605Z 30020G25KT 12/M01 A3008 RMK A01 T01241006  RH  041%=      5-min Rain = 0
KSLS 170610Z 29019G24KT 12/M01 A3008 RMK A01 T01241006  RH  041%=      5-min Rain = 0
KSLS 170615Z 29020G27KT 13/M01 A3008 RMK A01 T01251007  RH  040%=      5-min Rain = 0
KSLS 170620Z 29019G26KT 13/M01 A3008 RMK A01 T01251008  RH  040%=      5-min Rain = 0
KSLS 170625Z 29017G22KT 12/M01 A3008 RMK A01 T01231008  RH  041%=      5-min Rain = 0
KSLS 170630Z 29018G23KT 12/M01 A3008 RMK A01 T01221008  RH  041%=      5-min Rain = 0
KSLS 170635Z 29018G24KT 12/M01 A3008 RMK A01 T01211009  RH  041%=      5-min Rain = 0
KSLS 170640Z 29017G22KT 12/M01 A3008 RMK A01 T01201009  RH  041%=      5-min Rain = 0
KSLS 170645Z 29017KT 12/M01 A3008 RMK A01 T01181009  RH  042%=      5-min Rain = 0
KSLS 170650Z 30017G23KT 12/M01 A3008 RMK A01 T01181009  RH  042%=      5-min Rain = 0
KSLS 170655Z 29018KT 12/M01 A3008 RMK A01 T01201010  RH  041%=      5-min Rain = 0
KSLS 170700Z 29019G24KT 13/M01 A3007 RMK A01 T01251014  RH  039%=      5-min Rain = 0
KSLS 170705Z 29020G26KT 13/M02 A3007 RMK A01 T01281016  RH  037%=      5-min Rain = 0
KSLS 170710Z 29021G27KT 13/M02 A3007 RMK A01 T01311017  RH  036%=      5-min Rain = 0
KSLS 170715Z 28020G25KT 13/M02 A3007 RMK A01 T01301017  RH  036%=      5-min Rain = 0
KSLS 170720Z 28018G27KT 13/M02 A3007 RMK A01 T01281016  RH  037%=      5-min Rain = 0
KSLS 170725Z 28018G23KT 13/M02 A3007 RMK A01 T01261016  RH  038%=      5-min Rain = 0
KSLS 170730Z 28017KT 12/M02 A3007 RMK A01 T01241015  RH  038%=      5-min Rain = 0
KSLS 170735Z 28016G21KT 12/M02 A3008 RMK A01 T01221015  RH  039%=      5-min Rain = 0
KSLS 170740Z 29015KT 12/M02 A3008 RMK A01 T01211016  RH  039%=      5-min Rain = 0
KSLS 170745Z 29014G19KT 12/M02 A3009 RMK A01 T01191016  RH  039%=      5-min Rain = 0
KSLS 170750Z 30015KT 12/M02 A3009 RMK A01 T01191016  RH  039%=      5-min Rain = 0
KSLS 170755Z 29014KT 12/M02 A3009 RMK A01 T01171017  RH  040%=      5-min Rain = 0
KSLS 170800Z 29015KT 12/M02 A3008 RMK A01 T01161017  RH  040%=      5-min Rain = 0
KSLS 170805Z 29016G21KT 12/M02 A3008 RMK A01 T01161016  RH  040%=      5-min Rain = 0
KSLS 170810Z 29016G22KT 12/M02 A3008 RMK A01 T01171016  RH  040%=      5-min Rain = 0
KSLS 170815Z 29015KT 11/M02 A3009 RMK A01 T01141016  RH  041%=      5-min Rain = 0
KSLS 170820Z 29016G22KT 12/M02 A3009 RMK A01 T01151016  RH  041%=      5-min Rain = 0
KSLS 170825Z 29014G21KT 11/M02 A301 RMK A01 T01131016  RH  041%=      5-min Rain = 0
KSLS 170830Z 29015G21KT 11/M02 A301 RMK A01 T01121016  RH  041%=      5-min Rain = 0
KSLS 170835Z 28016KT 11/M02 A3009 RMK A01 T01101017  RH  042%=      5-min Rain = 0
KSLS 170840Z 28016KT 11/M02 A3009 RMK A01 T01091017  RH  042%=      5-min Rain = 0
KSLS 170845Z 28017G24KT 11/M02 A3009 RMK A01 T01091016  RH  042%=      5-min Rain = 0
KSLS 170850Z 28016KT 11/M02 A3009 RMK A01 T01071016  RH  043%=      5-min Rain = 0
KSLS 170855Z 28016G21KT 10/M02 A3009 RMK A01 T01041016  RH  044%=      5-min Rain = 0
KSLS 170900Z 28016G21KT 10/M02 A3009 RMK A01 T01031015  RH  044%=      5-min Rain = 0
KSLS 170905Z 29015KT 10/M02 A3009 RMK A01 T01011015  RH  045%=      5-min Rain = 0
KSLS 170910Z 28015KT 10/M02 A3009 RMK A01 T00981015  RH  046%=      5-min Rain = 0
KSLS 170915Z 28014G20KT 10/M01 A301 RMK A01 T00971014  RH  046%=      5-min Rain = 0
KSLS 170920Z 28016KT 10/M01 A301 RMK A01 T00961014  RH  047%=      5-min Rain = 0
KSLS 170925Z 29016G22KT 10/M01 A301 RMK A01 T00981013  RH  046%=      5-min Rain = 0
KSLS 170930Z 29017G23KT 10/M01 A301 RMK A01 T00981013  RH  047%=      5-min Rain = 0
KSLS 170935Z 29019KT 10/M01 A3009 RMK A01 T01011013  RH  046%=      5-min Rain = 0
KSLS 170940Z 30017G23KT 10/M01 A301 RMK A01 T00991013  RH  046%=      5-min Rain = 0
KSLS 170945Z 30017G22KT 10/M01 A301 RMK A01 T01001013  RH  046%=      5-min Rain = 0
KSLS 170950Z 30017G22KT 10/M01 A301 RMK A01 T01001013  RH  046%=      5-min Rain = 0
KSLS 170955Z 29016G21KT 10/M01 A3011 RMK A01 T01001013  RH  046%=      5-min Rain = 0
KSLS 171000Z 28013KT 10/M01 A3011 RMK A01 T00991013  RH  046%=      5-min Rain = 0
KSLS 171005Z 28013KT 10/M01 A3011 RMK A01 T00981013  RH  046%=      5-min Rain = 0
KSLS 171010Z 29014KT 10/M01 A3011 RMK A01 T00971013  RH  047%=      5-min Rain = 0
KSLS 171015Z 29014KT 10/M01 A3011 RMK A01 T00971012  RH  047%=      5-min Rain = 0
KSLS 171020Z 29015KT 10/M01 A3011 RMK A01 T00991012  RH  047%=      5-min Rain = 0
KSLS 171025Z 30015G20KT 10/M01 A3012 RMK A01 T01001012  RH  046%=      5-min Rain = 0
KSLS 171030Z 29015KT 10/M01 A3012 RMK A01 T01001012  RH  046%=      5-min Rain = 0
KSLS 171035Z 29013G19KT 10/M01 A3012 RMK A01 T01001012  RH  046%=      5-min Rain = 0
KSLS 171040Z 29014KT 10/M01 A3012 RMK A01 T01001012  RH  046%=      5-min Rain = 0
KSLS 171045Z 29012G17KT 10/M01 A3012 RMK A01 T00991011  RH  047%=      5-min Rain = 0
KSLS 171050Z 29014KT 10/M01 A3012 RMK A01 T00981010  RH  047%=      5-min Rain = 0
KSLS 171055Z 29013G18KT 10/M01 A3012 RMK A01 T00981010  RH  048%=      5-min Rain = 0
KSLS 171100Z 29012KT 10/M01 A3013 RMK A01 T00971010  RH  048%=      5-min Rain = 0
KSLS 171105Z 29011KT 09/M01 A3013 RMK A01 T00931010  RH  049%=      5-min Rain = 0
KSLS 171110Z 29011KT 09/M01 A3012 RMK A01 T00921010  RH  049%=      5-min Rain = 0
KSLS 171115Z 30011KT 09/M01 A3012 RMK A01 T00901010  RH  050%=      5-min Rain = 0
KSLS 171120Z 30013KT 09/M01 A3012 RMK A01 T00901010  RH  050%=      5-min Rain = 0
KSLS 171125Z 29012KT 09/M01 A3012 RMK A01 T00891010  RH  051%=      5-min Rain = 0
KSLS 171130Z 30012KT 09/M01 A3012 RMK A01 T00871010  RH  051%=      5-min Rain = 0
KSLS 171135Z 29011KT 09/M01 A3013 RMK A01 T00851010  RH  052%=      5-min Rain = 0
KSLS 171140Z 30012KT 08/M01 A3013 RMK A01 T00841009  RH  052%=      5-min Rain = 0
KSLS 171145Z 30011KT 08/M01 A3013 RMK A01 T00821010  RH  053%=      5-min Rain = 0
KSLS 171150Z 30010KT 08/M01 A3013 RMK A01 T00811010  RH  053%=      5-min Rain = 0
KSLS 171155Z 29009KT 08/M01 A3013 RMK A01 T00791010  RH  054%=      5-min Rain = 0
KSLS 171200Z 29008KT 08/M01 A3013 RMK A01 T00751010  RH  055%=      5-min Rain = 0
KSLS 171205Z 29009KT 07/M01 A3013 RMK A01 T00741010  RH  056%=      5-min Rain = 0
KSLS 171210Z 29008KT 07/M01 A3014 RMK A01 T00721010  RH  056%=      5-min Rain = 0
KSLS 171215Z 29008KT 07/M01 A3014 RMK A01 T00691011  RH  057%=      5-min Rain = 0
KSLS 171220Z 29008KT 07/M01 A3014 RMK A01 T00691011  RH  057%=      5-min Rain = 0
KSLS 171225Z 29008KT 07/M01 A3015 RMK A01 T00691011  RH  057%=      5-min Rain = 0
KSLS 171230Z 29008KT 07/M01 A3015 RMK A01 T00671012  RH  058%=      5-min Rain = 0
KSLS 171235Z 28009KT 07/M01 A3015 RMK A01 T00671012  RH  058%=      5-min Rain = 0
KSLS 171240Z 28009KT 07/M01 A3015 RMK A01 T00661012  RH  058%=      5-min Rain = 0
KSLS 171245Z 28010KT 07/M01 A3015 RMK A01 T00651011  RH  059%=      5-min Rain = 0
KSLS 171250Z 28009KT 07/M01 A3015 RMK A01 T00651011  RH  059%=      5-min Rain = 0
KSLS 171255Z 29009KT 06/M01 A3016 RMK A01 T00631012  RH  059%=      5-min Rain = 0
KSLS 171300Z 29009KT 06/M01 A3016 RMK A01 T00621012  RH  060%=      5-min Rain = 0
KSLS 171305Z 28010KT 06/M01 A3016 RMK A01 T00601012  RH  061%=      5-min Rain = 0
KSLS 171310Z 29010KT 06/M01 A3016 RMK A01 T00581013  RH  061%=      5-min Rain = 0
KSLS 171315Z 30010KT 05/M01 A3017 RMK A01 T00541013  RH  062%=      5-min Rain = 0
KSLS 171320Z 31009KT 05/M01 A3016 RMK A01 T00531013  RH  063%=      5-min Rain = 0
KSLS 171325Z 31008KT 05/M01 A3016 RMK A01 T00521014  RH  063%=      5-min Rain = 0
KSLS 171330Z 30008KT 05/M01 A3017 RMK A01 T00481014  RH  065%=      5-min Rain = 0
KSLS 171335Z 29007KT 05/M01 A3017 RMK A01 T00471014  RH  065%=      5-min Rain = 0
KSLS 171340Z 29007KT 05/M02 A3018 RMK A01 T00451015  RH  066%=      5-min Rain = 0
KSLS 171345Z 30008KT 05/M01 A3018 RMK A01 T00461014  RH  066%=      5-min Rain = 0
KSLS 171350Z 30008KT 04/M02 A3018 RMK A01 T00441015  RH  066%=      5-min Rain = 0
KSLS 171355Z 30009KT 04/M01 A3018 RMK A01 T00431014  RH  067%=      5-min Rain = 0
KSLS 171400Z 30010KT 04/M01 A3018 RMK A01 T00441014  RH  067%=      5-min Rain = 0
KSLS 171405Z 30011KT 05/M01 A3018 RMK A01 T00471013  RH  066%=      5-min Rain = 0
KSLS 171410Z 31010KT 05/M01 A3018 RMK A01 T00491013  RH  065%=      5-min Rain = 0
KSLS 171415Z 30011KT 05/M01 A3018 RMK A01 T00511013  RH  064%=      5-min Rain = 0
KSLS 171420Z 31010KT 05/M01 A3018 RMK A01 T00521012  RH  064%=      5-min Rain = 0
KSLS 171425Z 30010KT 05/M01 A3018 RMK A01 T00531011  RH  064%=      5-min Rain = 0
KSLS 171430Z 31008KT 05/M01 A3019 RMK A01 T00541011  RH  064%=      5-min Rain = 0
KSLS 171435Z 30008KT 06/M01 A3019 RMK A01 T00551010  RH  064%=      5-min Rain = 0
KSLS 171440Z 30009KT 06/M01 A3018 RMK A01 T00551010  RH  063%=      5-min Rain = 0
KSLS 171445Z 30009KT 06/M01 A3018 RMK A01 T00571009  RH  063%=      5-min Rain = 0
KSLS 171450Z 30010KT 06/M01 A3018 RMK A01 T00601007  RH  063%=      5-min Rain = 0
KSLS 171455Z 30010KT 06/M01 A3018 RMK A01 T00631007  RH  062%=      5-min Rain = 0
KSLS 171500Z 30009KT 07/M01 A3018 RMK A01 T00661005  RH  061%=      5-min Rain = 0
KSLS 171505Z 30010KT 07/M01 A3019 RMK A01 T00701005  RH  060%=      5-min Rain = 0
KSLS 171510Z 29009KT 07/M00 A3019 RMK A01 T00731004  RH  059%=      5-min Rain = 0
KSLS 171515Z 29008KT 08/M00 A302 RMK A01 T00761003  RH  058%=      5-min Rain = 0
KSLS 171520Z 29010KT 08/M00 A302 RMK A01 T00791003  RH  057%=      5-min Rain = 0
KSLS 171525Z 29010KT 08/M00 A302 RMK A01 T00821002  RH  056%=      5-min Rain = 0
KSLS 171530Z 29009KT 09/00 A302 RMK A01 T00860000  RH  056%=      5-min Rain = 0
KSLS 171535Z 29011KT 09/00 A302 RMK A01 T00890000  RH  054%=      5-min Rain = 0
KSLS 171540Z 29011KT 09/00 A302 RMK A01 T00910001  RH  054%=      5-min Rain = 0
KSLS 171545Z 29009KT 09/00 A302 RMK A01 T00940003  RH  054%=      5-min Rain = 0
KSLS 171550Z 29009KT 10/00 A302 RMK A01 T00970003  RH  052%=      5-min Rain = 0
KSLS 171555Z 29011KT 10/00 A302 RMK A01 T01010002  RH  051%=      5-min Rain = 0
KSLS 171600Z 29011KT 10/00 A302 RMK A01 T01040002  RH  050%=      5-min Rain = 0
KSLS 171605Z 29011KT 11/00 A3021 RMK A01 T01080003  RH  049%=      5-min Rain = 0
KSLS 171610Z 29010KT 11/00 A3021 RMK A01 T01130004  RH  048%=      5-min Rain = 0
KSLS 171615Z 30011KT 12/00 A3021 RMK A01 T01150003  RH  047%=      5-min Rain = 0
KSLS 171620Z 29009KT 12/00 A3021 RMK A01 T01180004  RH  046%=      5-min Rain = 0
KSLS 171625Z 29009KT 12/00 A3021 RMK A01 T01200003  RH  045%=      5-min Rain = 0
KSLS 171630Z 29008KT 12/00 A3021 RMK A01 T01210002  RH  044%=      5-min Rain = 0
KSLS 171635Z 29008KT 12/00 A3022 RMK A01 T01240003  RH  044%=      5-min Rain = 0
KSLS 171640Z 30007KT 13/00 A3021 RMK A01 T01260003  RH  043%=      5-min Rain = 0
KSLS 171645Z 29008KT 13/00 A3021 RMK A01 T01280004  RH  043%=      5-min Rain = 0
KSLS 171650Z 31008KT 13/01 A3021 RMK A01 T01330005  RH  042%=      5-min Rain = 0
KSLS 171655Z 31007KT 14/00 A3021 RMK A01 T01350003  RH  041%=      5-min Rain = 0
KSLS 171700Z 30006KT 14/00 A3021 RMK A01 T01400004  RH  040%=      5-min Rain = 0
KSLS 171705Z 29007KT 14/00 A3021 RMK A01 T01390002  RH  040%=      5-min Rain = 0
KSLS 171710Z 29007KT 14/00 A3021 RMK A01 T01390002  RH  039%=      5-min Rain = 0
KSLS 171715Z 28006KT 14/M00 A3021 RMK A01 T01401001  RH  038%=      5-min Rain = 0
KSLS 171720Z 29005KT 14/M00 A3021 RMK A01 T01441003  RH  037%=      5-min Rain = 0
KSLS 171725Z 30006KT 15/M01 A3021 RMK A01 T01461007  RH  035%=      5-min Rain = 0
KSLS 171730Z 29005KT 15/M01 A3021 RMK A01 T01491005  RH  035%=      5-min Rain = 0
KSLS 171735Z 29004KT 16/00 A3021 RMK A01 T01550003  RH  036%=      5-min Rain = 0
KSLS 171740Z 31005KT 16/00 A3021 RMK A01 T01590002  RH  035%=      5-min Rain = 0
KSLS 171745Z 33004KT 16/M00 A302 RMK A01 T01611003  RH  033%=      5-min Rain = 0
KSLS 171750Z 34006KT 16/M00 A302 RMK A01 T01621004  RH  033%=      5-min Rain = 0
KSLS 171755Z 35006KT 16/M01 A302 RMK A01 T01631006  RH  032%=      5-min Rain = 0
KSLS 171800Z 34005KT 16/M01 A3019 RMK A01 T01631009  RH  031%=      5-min Rain = 0
KSLS 171805Z 34004KT 17/M01 A3019 RMK A01 T01661009  RH  031%=      5-min Rain = 0
KSLS 171810Z 33003KT 17/M01 A3019 RMK A01 T01661011  RH  030%=      5-min Rain = 0
KSLS 171815Z 31003KT 17/M01 A3019 RMK A01 T01701010  RH  030%=      5-min Rain = 0
KSLS 171820Z 31003KT 17/M02 A3019 RMK A01 T01711017  RH  028%=      5-min Rain = 0
KSLS 171825Z 34004KT 17/M02 A3019 RMK A01 T01701017  RH  028%=      5-min Rain = 0
KSLS 171830Z 35003KT 17/M02 A3018 RMK A01 T01711021  RH  027%=      5-min Rain = 0
KSLS 171835Z 31003KT 17/M02 A3018 RMK A01 T01731018  RH  027%=      5-min Rain = 0
KSLS 171840Z 29003KT 18/M02 A3017 RMK A01 T01761018  RH  027%=      5-min Rain = 0
KSLS 171845Z 01002KT 18/M02 A3017 RMK A01 T01791019  RH  026%=      5-min Rain = 0
KSLS 171850Z 25001KT 19/M02 A3017 RMK A01 T01851018  RH  026%=      5-min Rain = 0
KSLS 171855Z 27002KT 18/M02 A3017 RMK A01 T01821021  RH  025%=      5-min Rain = 0
KSLS 171900Z 30002KT 18/M03 A3016 RMK A01 T01811026  RH  025%=      5-min Rain = 0
KSLS 171905Z 24002KT 18/M02 A3016 RMK A01 T01831022  RH  025%=      5-min Rain = 0
KSLS 171910Z 24003KT 18/M03 A3016 RMK A01 T01821028  RH  024%=      5-min Rain = 0
KSLS 171915Z 24005KT 18/M03 A3015 RMK A01 T01831027  RH  024%=      5-min Rain = 0
KSLS 171920Z 24003KT 18/M03 A3015 RMK A01 T01821028  RH  024%=      5-min Rain = 0
KSLS 171925Z 22002KT 19/M03 A3014 RMK A01 T01861030  RH  023%=      5-min Rain = 0
KSLS 171930Z 23003KT 19/M03 A3014 RMK A01 T01851030  RH  023%=      5-min Rain = 0
KSLS 171935Z 27001KT 19/M03 A3013 RMK A01 T01871030  RH  023%=      5-min Rain = 0
KSLS 171940Z 21003KT 19/M03 A3013 RMK A01 T01871031  RH  023%=      5-min Rain = 0
KSLS 171945Z 23002KT 19/M03 A3013 RMK A01 T01901029  RH  023%=      5-min Rain = 0
KSLS 171950Z 24005KT 19/M03 A3013 RMK A01 T01881032  RH  023%=      5-min Rain = 0
KSLS 171955Z 26004KT 19/M03 A3013 RMK A01 T01871032  RH  023%=      5-min Rain = 0
KSLS 172000Z 31003KT 19/M04 A3013 RMK A01 T01861035  RH  022%=      5-min Rain = 0
KSLS 172005Z 33001KT 19/M03 A3012 RMK A01 T01901032  RH  022%=      5-min Rain = 0
KSLS 172010Z 22003KT 19/M03 A3012 RMK A01 T01911029  RH  023%=      5-min Rain = 0
KSLS 172015Z 28001KT 20/M03 A3012 RMK A01 T01961032  RH  021%=      5-min Rain = 0
KSLS 172020Z 23003KT 19/M03 A3011 RMK A01 T01941030  RH  022%=      5-min Rain = 0
KSLS 172025Z 17003KT 20/M03 A3011 RMK A01 T01981027  RH  022%=      5-min Rain = 0
KSLS 172030Z 20004KT 19/M03 A3011 RMK A01 T01941034  RH  021%=      5-min Rain = 0
KSLS 172035Z 22003KT 19/M04 A3011 RMK A01 T01931035  RH  021%=      5-min Rain = 0
KSLS 172040Z 14003KT 20/M03 A301 RMK A01 T01981034  RH  021%=      5-min Rain = 0
KSLS 172045Z 15004KT 20/M04 A301 RMK A01 T01951037  RH  021%=      5-min Rain = 0
KSLS 172050Z 17004KT 19/M04 A301 RMK A01 T01941042  RH  020%=      5-min Rain = 0
KSLS 172055Z 20005KT 19/M04 A301 RMK A01 T01931042  RH  020%=      5-min Rain = 0
KSLS 172100Z 19005KT 19/M04 A301 RMK A01 T01941036  RH  021%=      5-min Rain = 0
KSLS 172105Z 18004KT 20/M04 A301 RMK A01 T01961037  RH  021%=      5-min Rain = 0
KSLS 172110Z 16003KT 20/M04 A301 RMK A01 T01981039  RH  020%=      5-min Rain = 0
KSLS 172115Z 22006KT 20/M04 A301 RMK A01 T01961038  RH  020%=      5-min Rain = 0
KSLS 172120Z 20007KT 19/M04 A3009 RMK A01 T01941039  RH  021%=      5-min Rain = 0
KSLS 172125Z 18005KT 20/M04 A301 RMK A01 T01961038  RH  020%=      5-min Rain = 0
KSLS 172130Z 21005KT 20/M04 A301 RMK A01 T01981042  RH  020%=      5-min Rain = 0
KSLS 172135Z 20008KT 20/M04 A301 RMK A01 T01951035  RH  021%=      5-min Rain = 0
KSLS 172140Z 19007KT 20/M04 A3009 RMK A01 T01961041  RH  020%=      5-min Rain = 0
KSLS 172145Z 18008KT 19/M04 A3009 RMK A01 T01931036  RH  021%=      5-min Rain = 0
KSLS 172150Z 17006KT 19/M03 A3009 RMK A01 T01921032  RH  022%=      5-min Rain = 0
KSLS 172155Z 16007KT 19/M03 A3009 RMK A01 T01931034  RH  021%=      5-min Rain = 0
KSLS 172200Z 20008KT 19/M03 A3009 RMK A01 T01911033  RH  022%=      5-min Rain = 0
KSLS 172205Z 19008KT 19/M03 A3009 RMK A01 T01891032  RH  022%=      5-min Rain = 0
KSLS 172210Z 19008KT 19/M03 A3009 RMK A01 T01891034  RH  022%=      5-min Rain = 0
KSLS 172215Z 18010KT 19/M03 A301 RMK A01 T01891032  RH  022%=      5-min Rain = 0
KSLS 172220Z 17010KT 19/M03 A301 RMK A01 T01881030  RH  023%=      5-min Rain = 0
KSLS 172225Z 17010KT 19/M03 A301 RMK A01 T01861029  RH  023%=      5-min Rain = 0
KSLS 172230Z 16009KT 19/M03 A3009 RMK A01 T01861027  RH  024%=      5-min Rain = 0
KSLS 172235Z 16009KT 18/M03 A3009 RMK A01 T01841027  RH  024%=      5-min Rain = 0
KSLS 172240Z 17008G14KT 18/M03 A3009 RMK A01 T01811029  RH  024%=      5-min Rain = 0
KSLS 172245Z 17008KT 18/M03 A3009 RMK A01 T01781027  RH  025%=      5-min Rain = 0
KSLS 172250Z 16009KT 17/M03 A3009 RMK A01 T01741025  RH  026%=      5-min Rain = 0
KSLS 172255Z 16008KT 17/M02 A3009 RMK A01 T01701018  RH  028%=      5-min Rain = 0
KSLS 172300Z 17008KT 16/M02 A3009 RMK A01 T01641017  RH  029%=      5-min Rain = 0
KSLS 172305Z 17009KT 17/M02 A3009 RMK A01 T01651022  RH  028%=      5-min Rain = 0
KSLS 172310Z 17009KT 17/M02 A3009 RMK A01 T01651019  RH  029%=      5-min Rain = 0
KSLS 172315Z 17009KT 16/M02 A3009 RMK A01 T01621018  RH  029%=      5-min Rain = 0
KSLS 172320Z 17009KT 16/M02 A3009 RMK A01 T01621021  RH  029%=      5-min Rain = 0
KSLS 172325Z 17010KT 16/M02 A3009 RMK A01 T01641022  RH  028%=      5-min Rain = 0
KSLS 172330Z 17009KT 16/M02 A3009 RMK A01 T01621019  RH  029%=      5-min Rain = 0
KSLS 172335Z 17009KT 16/M02 A3008 RMK A01 T01611017  RH  030%=      5-min Rain = 0
KSLS 172340Z 17010KT 16/M02 A3008 RMK A01 T01571016  RH  031%=      5-min Rain = 0
KSLS 172345Z 17010KT 15/M02 A3008 RMK A01 T01531016  RH  032%=      5-min Rain = 0
KSLS 172350Z 17009KT 15/M02 A3008 RMK A01 T01471015  RH  033%=      5-min Rain = 0
KSLS 172355Z 17009KT 14/M02 A3008 RMK A01 T01411016  RH  034%=      5-min Rain = 0
KSLS 180000Z 17009KT 13/M02 A3008 RMK A01 T01341016  RH  036%=      5-min Rain = 0
KSLS 180005Z 17009KT 13/M02 A3008 RMK A01 T01271017  RH  037%=      5-min Rain = 0
KSLS 180010Z 17009KT 12/M02 A3008 RMK A01 T01211017  RH  039%=      5-min Rain = 0
KSLS 180015Z 17009KT 12/M02 A3008 RMK A01 T01161018  RH  040%=      5-min Rain = 0
KSLS 180020Z 17008KT 11/M02 A3008 RMK A01 T01131019  RH  040%=      5-min Rain = 0
KSLS 180025Z 17008KT 11/M02 A3007 RMK A01 T01121021  RH  040%=      5-min Rain = 0
KSLS 180030Z 17009KT 11/M02 A3008 RMK A01 T01071021  RH  041%=      5-min Rain = 0
KSLS 180035Z 17009KT 10/M02 A3008 RMK A01 T01031019  RH  043%=      5-min Rain = 0
KSLS 180040Z 17009KT 10/M02 A3008 RMK A01 T01001019  RH  044%=      5-min Rain = 0
KSLS 180045Z 17009KT 10/M02 A3008 RMK A01 T01031020  RH  043%=      5-min Rain = 0
KSLS 180050Z 16008KT 10/M02 A3008 RMK A01 T00991019  RH  044%=      5-min Rain = 0
KSLS 180055Z 16009KT 09/M02 A3008 RMK A01 T00941016  RH  047%=      5-min Rain = 0
KSLS 180100Z 16010KT 09/M02 A3008 RMK A01 T00891015  RH  049%=      5-min Rain = 0
KSLS 180105Z 16010KT 09/M02 A3007 RMK A01 T00911017  RH  047%=      5-min Rain = 0
KSLS 180110Z 16010KT 09/M02 A3007 RMK A01 T00931017  RH  047%=      5-min Rain = 0
KSLS 180115Z 15010KT 09/M02 A3007 RMK A01 T00911016  RH  047%=      5-min Rain = 0
KSLS 180120Z 15010KT 09/M02 A3007 RMK A01 T00891017  RH  048%=      5-min Rain = 0
KSLS 180125Z 15010KT 09/M02 A3007 RMK A01 T00891015  RH  049%=      5-min Rain = 0
KSLS 180130Z 16010KT 09/M01 A3007 RMK A01 T00871014  RH  050%=      5-min Rain = 0
KSLS 180135Z 16010KT 09/M01 A3007 RMK A01 T00881012  RH  050%=      5-min Rain = 0
KSLS 180140Z 16010KT 09/M01 A3007 RMK A01 T00901010  RH  050%=      5-min Rain = 0
KSLS 180145Z 16009KT 09/M01 A3007 RMK A01 T00931011  RH  049%=      5-min Rain = 0
KSLS 180150Z 16009KT 09/M01 A3007 RMK A01 T00931011  RH  049%=      5-min Rain = 0
KSLS 180155Z 16009KT 09/M01 A3007 RMK A01 T00911011  RH  049%=      5-min Rain = 0
KSLS 180200Z 16009KT 08/M01 A3007 RMK A01 T00841013  RH  051%=      5-min Rain = 0
KSLS 180205Z 16009KT 08/M01 A3007 RMK A01 T00791012  RH  053%=      5-min Rain = 0
KSLS 180210Z 17008KT 08/M01 A3006 RMK A01 T00801014  RH  052%=      5-min Rain = 0
KSLS 180215Z 17009KT 08/M01 A3007 RMK A01 T00791013  RH  053%=      5-min Rain = 0
KSLS 180220Z 17011KT 08/M01 A3007 RMK A01 T00761011  RH  054%=      5-min Rain = 0
KSLS 180225Z 17011KT 08/M01 A3007 RMK A01 T00781010  RH  054%=      5-min Rain = 0
KSLS 180230Z 17011KT 09/M01 A3007 RMK A01 T00861009  RH  052%=      5-min Rain = 0
KSLS 180235Z 17009KT 09/M01 A3007 RMK A01 T00851009  RH  052%=      5-min Rain = 0
KSLS 180240Z 17009KT 09/M01 A3007 RMK A01 T00861009  RH  052%=      5-min Rain = 0
KSLS 180245Z 17009KT 09/M01 A3007 RMK A01 T00861011  RH  051%=      5-min Rain = 0
KSLS 180250Z 17009KT 09/M01 A3007 RMK A01 T00851012  RH  051%=      5-min Rain = 0
KSLS 180255Z 17009KT 09/M01 A3007 RMK A01 T00861010  RH  051%=      5-min Rain = 0
KSLS 180300Z 17010KT 09/M01 A3006 RMK A01 T00871006  RH  053%=      5-min Rain = 0
KSLS 180305Z 17010KT 09/M00 A3006 RMK A01 T00851004  RH  054%=      5-min Rain = 0
KSLS 180310Z 17011KT 08/M00 A3006 RMK A01 T00841004  RH  054%=      5-min Rain = 0
KSLS 180315Z 18011KT 08/M00 A3006 RMK A01 T00821004  RH  055%=      5-min Rain = 0
KSLS 180320Z 18010KT 08/M00 A3006 RMK A01 T00821004  RH  056%=      5-min Rain = 0
KSLS 180325Z 18010KT 08/M00 A3005 RMK A01 T00771004  RH  057%=      5-min Rain = 0
KSLS 180330Z 18009KT 07/M01 A3005 RMK A01 T00731007  RH  058%=      5-min Rain = 0
KSLS 180335Z 18009KT 07/M01 A3005 RMK A01 T00681008  RH  059%=      5-min Rain = 0
KSLS 180340Z 18009KT 06/M01 A3005 RMK A01 T00631008  RH  061%=      5-min Rain = 0
KSLS 180345Z 18010KT 06/M01 A3004 RMK A01 T00591008  RH  063%=      5-min Rain = 0
KSLS 180350Z 18010KT 06/M01 A3004 RMK A01 T00571009  RH  064%=      5-min Rain = 0
KSLS 180355Z 18009KT 06/M01 A3004 RMK A01 T00551009  RH  064%=      5-min Rain = 0
KSLS 180400Z 17009KT 06/M01 A3004 RMK A01 T00551009  RH  065%=      5-min Rain = 0
KSLS 180405Z 18008KT 05/M01 A3004 RMK A01 T00521010  RH  065%=      5-min Rain = 0
KSLS 180410Z 18009KT 05/M01 A3004 RMK A01 T00481010  RH  067%=      5-min Rain = 0
KSLS 180415Z 18008KT 05/M01 A3004 RMK A01 T00471010  RH  067%=      5-min Rain = 0
KSLS 180420Z 18008KT 04/M01 A3004 RMK A01 T00421011  RH  069%=      5-min Rain = 0
KSLS 180425Z 18008KT 04/M01 A3004 RMK A01 T00421011  RH  069%=      5-min Rain = 0
KSLS 180430Z 18008KT 04/M01 A3004 RMK A01 T00431011  RH  069%=      5-min Rain = 0
KSLS 180435Z 19009KT 04/M01 A3004 RMK A01 T00441012  RH  068%=      5-min Rain = 0
KSLS 180440Z 19010KT 05/M01 A3004 RMK A01 T00451009  RH  069%=      5-min Rain = 0
KSLS 180445Z 19009KT 05/M01 A3004 RMK A01 T00491007  RH  068%=      5-min Rain = 0
KSLS 180450Z 20007KT 05/M01 A3004 RMK A01 T00491009  RH  067%=      5-min Rain = 0
KSLS 180455Z 21007KT 05/M01 A3004 RMK A01 T00481010  RH  067%=      5-min Rain = 0
KSLS 180500Z 21008KT 05/M01 A3004 RMK A01 T00481010  RH  067%=      5-min Rain = 0
KSLS 180505Z 22008KT 05/M01 A3004 RMK A01 T00501009  RH  067%=      5-min Rain = 0
KSLS 180510Z 22008KT 06/M01 A3004 RMK A01 T00571006  RH  065%=      5-min Rain = 0
KSLS 180515Z 22008KT 07/M00 A3003 RMK A01 T00681004  RH  061%=      5-min Rain = 0
KSLS 180520Z 22009KT 07/M00 A3003 RMK A01 T00711004  RH  059%=      5-min Rain = 0
KSLS 180525Z 22010KT 07/M00 A3003 RMK A01 T00721004  RH  059%=      5-min Rain = 0
KSLS 180530Z 22010KT 07/M01 A3003 RMK A01 T00711005  RH  059%=      5-min Rain = 0
KSLS 180535Z 22010KT 07/M01 A3003 RMK A01 T00671006  RH  060%=      5-min Rain = 0
KSLS 180540Z 22011KT 06/M01 A3002 RMK A01 T00641006  RH  062%=      5-min Rain = 0
KSLS 180545Z 22011KT 07/M01 A3002 RMK A01 T00651005  RH  061%=      5-min Rain = 0
KSLS 180550Z 22012KT 07/M01 A3002 RMK A01 T00671005  RH  061%=      5-min Rain = 0
KSLS 180555Z 22012KT 07/M01 A3002 RMK A01 T00691005  RH  060%=      5-min Rain = 0

Page generated in 0.012 seconds.